createdAt,value
2022-09-12T00:01:29.963Z,3.35
2022-09-12T00:03:59.066Z,3.92
2022-09-12T00:06:31.838Z,3.25
2022-09-12T00:09:08.470Z,4.10
2022-09-12T00:11:37.482Z,3.88
2022-09-12T00:14:05.151Z,3.40
2022-09-12T00:16:33.635Z,4.38
2022-09-12T00:19:01.420Z,3.95
2022-09-12T00:21:28.929Z,3.85
2022-09-12T00:23:55.559Z,4.03
2022-09-12T00:26:22.175Z,4.35
2022-09-12T00:28:49.401Z,4.00
2022-09-12T00:31:19.265Z,3.95
2022-09-12T00:33:46.706Z,4.90
2022-09-12T00:36:16.737Z,3.70
2022-09-12T00:38:45.282Z,4.85
2022-09-12T00:41:35.267Z,4.13
2022-09-12T00:44:21.731Z,4.95
2022-09-12T00:46:51.371Z,4.47
2022-09-12T00:49:28.124Z,4.93
2022-09-12T00:52:08.684Z,4.60
2022-09-12T00:54:47.658Z,4.80
2022-09-12T01:00:15.470Z,4.55
2022-09-12T01:02:46.073Z,5.47
2022-09-12T01:05:13.740Z,4.68
2022-09-12T01:07:41.657Z,4.55
2022-09-12T01:10:09.846Z,4.05
2022-09-12T01:15:05.311Z,3.40
2022-09-12T01:17:44.934Z,3.60
2022-09-12T01:20:17.368Z,3.28
2022-09-12T01:23:21.761Z,2.42
2022-09-12T01:26:02.966Z,2.58
2022-09-12T01:29:00.675Z,2.75
2022-09-12T01:31:42.368Z,2.45
2022-09-12T01:34:28.810Z,2.35
2022-09-12T01:37:02.371Z,2.22
2022-09-12T01:39:53.922Z,2.40
2022-09-12T01:42:32.880Z,2.58
2022-09-12T01:47:51.395Z,3.17
2022-09-12T01:50:22.879Z,3.42
2022-09-12T01:52:54.731Z,3.67
2022-09-12T01:55:28.673Z,4.20
2022-09-12T01:58:06.092Z,4.00
2022-09-12T02:00:35.637Z,4.30
2022-09-12T02:03:09.528Z,3.72
2022-09-12T02:05:44.679Z,4.60
2022-09-12T02:08:38.093Z,4.35
2022-09-12T02:11:11.073Z,4.72
2022-09-12T02:13:40.397Z,5.05
2022-09-12T02:16:17.052Z,4.78
2022-09-12T02:18:52.382Z,5.40
2022-09-12T02:21:22.416Z,5.72
2022-09-12T02:23:57.333Z,5.28
2022-09-12T02:26:29.603Z,5.28
2022-09-12T02:28:57.479Z,4.97
2022-09-12T02:31:42.602Z,4.72
2022-09-12T02:34:21.220Z,5.53
2022-09-12T02:36:56.857Z,5.57
2022-09-12T02:39:23.577Z,4.28
2022-09-12T02:41:58.092Z,4.25
2022-09-12T02:44:26.883Z,3.78
2022-09-12T02:47:03.918Z,3.00
2022-09-12T02:49:30.783Z,3.40
2022-09-12T02:51:57.669Z,4.00
2022-09-12T02:54:25.854Z,3.33
2022-09-12T02:59:21.721Z,2.83
2022-09-12T03:02:07.168Z,3.10
2022-09-12T03:04:43.328Z,3.50
2022-09-12T03:07:42.540Z,2.55
2022-09-12T03:10:23.175Z,3.45
2022-09-12T03:13:00.936Z,2.40
2022-09-12T03:15:27.450Z,2.60
2022-09-12T03:18:12.794Z,2.63
2022-09-12T03:20:39.312Z,3.22
2022-09-12T03:23:15.533Z,3.28
2022-09-12T03:25:53.386Z,3.20
2022-09-12T03:28:22.229Z,3.05
2022-09-12T03:30:54.841Z,2.88
2022-09-12T03:33:23.617Z,3.08
2022-09-12T03:35:51.323Z,2.70
2022-09-12T03:38:18.849Z,2.88
2022-09-12T03:40:49.326Z,2.97
2022-09-12T03:43:18.153Z,2.85
2022-09-12T03:45:44.799Z,2.80
2022-09-12T03:48:11.471Z,3.15
2022-09-12T03:50:38.016Z,3.03
2022-09-12T03:53:04.725Z,3.25
2022-09-12T03:55:31.388Z,3.97
2022-09-12T03:57:58.098Z,3.63
2022-09-12T04:00:24.838Z,2.85
2022-09-12T04:02:57.021Z,3.58
2022-09-12T04:05:25.839Z,3.08
2022-09-12T04:07:52.648Z,3.80
2022-09-12T04:10:19.383Z,4.65
2022-09-12T04:12:45.981Z,4.25
2022-09-12T04:15:12.660Z,5.28
2022-09-12T04:17:39.288Z,4.10
2022-09-12T04:20:06.890Z,5.20
2022-09-12T04:22:33.799Z,3.55
2022-09-12T04:25:00.593Z,3.70
2022-09-12T04:27:27.168Z,3.70
2022-09-12T04:29:55.280Z,3.30
2022-09-12T04:32:22.507Z,3.22
2022-09-12T04:34:49.185Z,3.22
2022-09-12T04:37:16.895Z,4.07
2022-09-12T04:39:43.636Z,4.03
2022-09-12T04:42:10.403Z,4.15
2022-09-12T04:44:37.586Z,4.07
2022-09-12T04:47:04.285Z,3.97
2022-09-12T04:49:31.124Z,3.85
2022-09-12T04:51:57.808Z,3.38
2022-09-12T04:54:24.718Z,3.78
2022-09-12T04:56:52.599Z,4.15
2022-09-12T04:59:21.461Z,3.95
2022-09-12T05:01:48.741Z,4.35
2022-09-12T05:04:15.492Z,3.97
2022-09-12T05:06:43.465Z,3.95
2022-09-12T05:09:14.407Z,3.83
2022-09-12T05:14:29.960Z,4.75
2022-09-12T05:16:59.993Z,4.80
2022-09-12T05:19:27.483Z,4.22
2022-09-12T05:21:54.015Z,4.25
2022-09-12T05:24:20.681Z,4.68
2022-09-12T05:26:47.513Z,4.85
2022-09-12T05:29:14.159Z,4.82
2022-09-12T05:31:41.173Z,5.18
2022-09-12T05:34:10.222Z,5.72
2022-09-12T05:36:37.349Z,5.45
2022-09-12T05:39:04.723Z,5.80
2022-09-12T05:41:33.605Z,6.07
2022-09-12T05:44:02.646Z,5.00
2022-09-12T05:46:31.841Z,5.30
2022-09-12T05:49:04.133Z,5.78
2022-09-12T05:51:34.442Z,5.20
2022-09-12T05:54:04.192Z,6.22
2022-09-12T05:56:33.518Z,6.20
2022-09-12T05:59:02.987Z,6.20
2022-09-12T06:01:31.607Z,6.90
2022-09-12T06:04:03.307Z,6.13
2022-09-12T06:06:31.570Z,6.47
2022-09-12T06:11:29.004Z,6.60
2022-09-12T06:13:57.922Z,6.90
2022-09-12T06:16:27.587Z,5.88
2022-09-12T06:18:56.265Z,5.25
2022-09-12T06:21:24.132Z,4.95
2022-09-12T06:23:50.739Z,5.05
2022-09-12T06:26:22.470Z,6.07
2022-09-12T06:28:50.185Z,5.60
2022-09-12T06:31:22.860Z,4.60
2022-09-12T06:33:51.954Z,5.35
2022-09-12T06:36:22.586Z,4.63
2022-09-12T06:38:54.681Z,4.60
2022-09-12T06:41:21.503Z,4.93
2022-09-12T06:43:48.243Z,3.92
2022-09-12T06:46:15.003Z,3.40
2022-09-12T06:48:42.316Z,3.95
2022-09-12T06:51:15.534Z,3.10
2022-09-12T06:53:43.204Z,3.75
2022-09-12T06:56:19.268Z,3.25
2022-09-12T06:58:47.243Z,3.03
2022-09-12T07:01:20.782Z,3.15
2022-09-12T07:03:50.133Z,2.72
2022-09-12T07:06:19.476Z,2.58
2022-09-12T07:08:47.047Z,2.90
2022-09-12T07:11:15.016Z,2.50
2022-09-12T07:13:43.142Z,3.33
2022-09-12T07:18:38.374Z,2.60
2022-09-12T07:21:11.294Z,2.78
2022-09-12T07:23:38.419Z,2.50
2022-09-12T07:26:05.166Z,2.80
2022-09-12T07:28:34.262Z,4.45
2022-09-12T07:31:08.191Z,3.40
2022-09-12T07:33:35.290Z,2.83
2022-09-12T07:36:11.709Z,2.63
2022-09-12T07:38:39.354Z,2.63
2022-09-12T07:41:21.051Z,2.55
2022-09-12T07:43:48.531Z,3.25
2022-09-12T07:46:15.167Z,2.67
2022-09-12T07:48:41.790Z,2.50
2022-09-12T07:51:10.932Z,2.65
2022-09-12T07:53:40.053Z,2.13
2022-09-12T07:56:08.147Z,2.13
2022-09-12T07:58:37.121Z,2.00
2022-09-12T08:01:08.868Z,2.00
2022-09-12T08:03:40.102Z,2.20
2022-09-12T08:06:27.905Z,1.80
2022-09-12T08:08:56.307Z,1.85
2022-09-12T08:11:24.251Z,2.05
2022-09-12T08:13:55.271Z,1.88
2022-09-12T08:16:27.157Z,1.73
2022-09-12T08:18:53.802Z,1.90
2022-09-12T08:21:23.116Z,1.70
2022-09-12T08:23:58.265Z,1.92
2022-09-12T08:26:24.951Z,1.20
2022-09-12T08:28:52.031Z,1.10
2022-09-12T08:31:21.024Z,0.93
2022-09-12T08:33:48.059Z,1.30
2022-09-12T08:36:26.319Z,1.38
2022-09-12T08:38:59.896Z,1.10
2022-09-12T08:41:40.796Z,1.30
2022-09-12T08:44:10.347Z,1.05
2022-09-12T08:47:04.347Z,1.23
2022-09-12T08:49:49.053Z,1.13
2022-09-12T08:52:54.717Z,1.33
2022-09-12T08:55:32.760Z,1.17
2022-09-12T08:58:01.513Z,2.38
2022-09-12T09:00:40.592Z,1.23
2022-09-12T09:03:44.410Z,0.98
2022-09-12T09:06:14.217Z,1.25
2022-09-12T09:08:51.991Z,1.15
2022-09-12T09:11:29.716Z,0.70
2022-09-12T09:14:30.936Z,0.85
2022-09-12T09:16:58.658Z,1.00
2022-09-12T09:19:33.066Z,0.73
2022-09-12T09:22:14.203Z,0.80
2022-09-12T09:24:49.548Z,0.60
2022-09-12T09:27:40.319Z,0.70
2022-09-12T09:30:19.169Z,1.10
2022-09-12T09:32:52.987Z,1.15
2022-09-12T09:35:36.331Z,0.80
2022-09-12T09:38:28.648Z,0.90
2022-09-12T09:41:04.787Z,0.77
2022-09-12T09:43:31.594Z,0.80
2022-09-12T09:46:00.518Z,0.93
2022-09-12T09:48:33.768Z,0.93
2022-09-12T09:51:03.181Z,0.80
2022-09-12T09:53:41.532Z,0.98
2022-09-12T09:56:37.066Z,0.70
2022-09-12T09:59:33.768Z,0.85
2022-09-12T10:02:21.825Z,0.70
2022-09-12T10:04:58.815Z,0.73
2022-09-12T10:07:27.078Z,0.90
2022-09-12T10:10:17.020Z,0.90
2022-09-12T10:12:44.468Z,1.05
2022-09-12T10:15:31.380Z,1.10
2022-09-12T10:17:58.917Z,1.13
2022-09-12T10:20:44.739Z,0.70
2022-09-12T10:23:20.468Z,0.90
2022-09-12T10:25:53.610Z,0.80
2022-09-12T10:28:27.148Z,0.60
2022-09-12T10:30:56.196Z,0.68
2022-09-12T10:33:25.872Z,0.98
2022-09-12T10:35:54.780Z,0.52
2022-09-12T10:38:28.480Z,0.60
2022-09-12T10:41:03.642Z,0.70
2022-09-12T10:43:34.629Z,0.80
2022-09-12T10:46:16.550Z,0.70
2022-09-12T10:48:44.721Z,0.45
2022-09-12T10:54:05.283Z,0.70
2022-09-12T10:57:01.263Z,0.68
2022-09-12T10:59:31.455Z,0.60
2022-09-12T11:02:14.926Z,0.60
2022-09-12T11:04:50.500Z,0.70
2022-09-12T11:07:20.143Z,0.90
2022-09-12T11:09:46.661Z,0.68
2022-09-12T11:12:13.529Z,0.40
2022-09-12T11:14:52.142Z,0.68
2022-09-12T11:17:25.896Z,0.77
2022-09-12T11:20:10.578Z,0.60
2022-09-12T11:23:00.035Z,0.52
2022-09-12T11:25:40.583Z,0.40
2022-09-12T11:28:47.193Z,0.45
2022-09-12T11:31:13.978Z,0.60
2022-09-12T11:33:56.547Z,0.50
2022-09-12T11:37:09.908Z,0.60
2022-09-12T11:39:40.334Z,0.50
2022-09-12T11:42:18.226Z,0.40
2022-09-12T11:44:58.035Z,0.40
2022-09-12T11:47:26.518Z,0.70
2022-09-12T11:49:54.801Z,0.50
2022-09-12T11:52:25.137Z,0.35
2022-09-12T11:55:17.210Z,0.50
2022-09-12T11:57:54.312Z,0.50
2022-09-12T12:00:34.137Z,0.60
2022-09-12T12:03:06.749Z,0.40
2022-09-12T12:06:11.300Z,0.70
2022-09-12T12:08:40.818Z,0.30
2022-09-12T12:11:08.889Z,0.28
2022-09-12T12:13:49.762Z,0.40
2022-09-12T12:16:33.699Z,0.40
2022-09-12T12:19:02.748Z,0.40
2022-09-12T12:21:32.142Z,0.77
2022-09-12T12:24:09.939Z,0.50
2022-09-12T12:26:39.705Z,0.40
2022-09-12T12:29:10.398Z,0.50
2022-09-12T12:32:05.772Z,0.50
2022-09-12T12:34:32.352Z,0.60
2022-09-12T12:37:19.787Z,0.50
2022-09-12T12:39:50.359Z,0.57
2022-09-12T12:42:46.566Z,0.30
2022-09-12T12:45:19.028Z,0.73
2022-09-12T12:47:49.163Z,0.60
2022-09-12T12:50:21.434Z,0.70
2022-09-12T12:53:00.518Z,0.50
2022-09-12T12:55:51.648Z,0.30
2022-09-12T12:58:40.725Z,0.63
2022-09-12T13:01:15.951Z,0.55
2022-09-12T13:03:46.733Z,0.80
2022-09-12T13:06:34.164Z,0.68
2022-09-12T13:09:04.779Z,0.95
2022-09-12T13:11:36.817Z,0.60
2022-09-12T13:14:07.185Z,0.40
2022-09-12T13:16:55.751Z,0.35
2022-09-12T13:19:29.167Z,0.47
2022-09-12T13:22:10.107Z,0.60
2022-09-12T13:24:45.034Z,0.60
2022-09-12T13:27:25.975Z,0.50
2022-09-12T13:30:15.661Z,0.82
2022-09-12T13:32:43.969Z,0.40
2022-09-12T13:35:34.327Z,1.10
2022-09-12T13:38:12.242Z,0.40
2022-09-12T13:40:54.068Z,0.77
2022-09-12T13:43:38.682Z,0.50
2022-09-12T13:46:07.580Z,0.88
2022-09-12T13:48:34.770Z,0.40
2022-09-12T13:51:03.921Z,0.30
2022-09-12T13:53:43.704Z,0.55
2022-09-12T13:56:17.304Z,0.45
2022-09-12T13:59:00.379Z,0.47
2022-09-12T14:01:45.033Z,0.40
2022-09-12T14:04:39.374Z,0.57
2022-09-12T14:07:21.231Z,0.40
2022-09-12T14:09:59.898Z,0.47
2022-09-12T14:15:04.092Z,0.65
2022-09-12T14:17:31.695Z,0.30
2022-09-12T14:20:05.522Z,0.40
2022-09-12T14:22:34.235Z,0.50
2022-09-12T14:25:02.060Z,0.50
2022-09-12T14:27:37.413Z,0.60
2022-09-12T14:30:30.491Z,0.63
2022-09-12T14:33:12.464Z,1.38
2022-09-12T14:36:18.342Z,0.57
2022-09-12T14:38:47.928Z,0.65
2022-09-12T14:41:23.492Z,1.08
2022-09-12T14:43:55.321Z,0.50
2022-09-12T14:46:28.557Z,0.55
2022-09-12T14:49:17.588Z,0.70
2022-09-12T14:51:56.526Z,1.00
2022-09-12T14:54:33.011Z,0.75
2022-09-12T14:57:03.139Z,0.60
2022-09-12T14:59:34.440Z,1.00
2022-09-12T15:02:20.000Z,0.60
2022-09-12T15:04:50.923Z,0.73
2022-09-12T15:07:28.519Z,0.85
2022-09-12T15:09:55.653Z,1.10
2022-09-12T15:12:23.152Z,0.97
2022-09-12T15:14:49.745Z,1.35
2022-09-12T15:17:16.747Z,1.92
2022-09-12T15:19:43.364Z,2.65
2022-09-12T15:22:13.888Z,1.27
2022-09-12T15:24:40.582Z,1.42
2022-09-12T15:27:13.419Z,1.50
2022-09-12T15:29:40.134Z,1.67
2022-09-12T15:32:15.054Z,3.58
2022-09-12T15:34:41.624Z,3.40
2022-09-12T15:37:14.381Z,1.92
2022-09-12T15:39:41.370Z,1.15
2022-09-12T15:42:09.909Z,0.63
2022-09-12T15:44:36.489Z,0.68
2022-09-12T15:47:03.151Z,0.70
2022-09-12T15:49:29.987Z,0.40
2022-09-12T15:51:56.612Z,0.40
2022-09-12T15:54:23.349Z,0.88
2022-09-12T15:56:50.203Z,0.80
2022-09-12T15:59:16.785Z,0.75
2022-09-12T16:01:43.452Z,0.60
2022-09-12T16:04:23.689Z,0.93
2022-09-12T16:06:51.485Z,0.75
2022-09-12T16:09:18.350Z,0.50
2022-09-12T16:11:45.493Z,0.98
2022-09-12T16:14:17.273Z,1.03
2022-09-12T16:16:45.138Z,1.30
2022-09-12T16:19:12.409Z,1.10
2022-09-12T16:21:39.110Z,1.53
2022-09-12T16:24:05.967Z,1.63
2022-09-12T16:26:32.590Z,0.82
2022-09-12T16:29:00.108Z,0.73
2022-09-12T16:31:27.623Z,0.80
2022-09-12T16:33:54.605Z,0.90
2022-09-12T16:36:22.224Z,1.00
2022-09-12T16:38:53.667Z,1.13
2022-09-12T16:41:24.697Z,1.30
2022-09-12T16:43:51.893Z,1.17
2022-09-12T16:46:28.744Z,1.60
2022-09-12T16:48:58.031Z,1.45
2022-09-12T16:51:27.616Z,1.10
2022-09-12T16:53:55.457Z,1.25
2022-09-12T16:56:22.756Z,1.73
2022-09-12T16:58:49.795Z,1.80
2022-09-12T17:01:19.566Z,2.67
2022-09-12T17:03:47.139Z,3.50
2022-09-12T17:06:18.407Z,2.83
2022-09-12T17:08:47.982Z,2.67
2022-09-12T17:11:17.612Z,3.08
2022-09-12T17:14:06.497Z,3.20
2022-09-12T17:19:02.626Z,2.88
2022-09-12T17:21:29.262Z,2.60
2022-09-12T17:23:56.025Z,2.65
2022-09-12T17:26:22.838Z,3.47
2022-09-12T17:28:49.715Z,2.80
2022-09-12T17:31:17.166Z,2.75
2022-09-12T17:33:44.119Z,2.03
2022-09-12T17:36:15.264Z,2.10
2022-09-12T17:38:44.439Z,2.40
2022-09-12T17:41:20.110Z,2.00
2022-09-12T17:43:50.914Z,2.00
2022-09-12T17:46:19.141Z,1.88
2022-09-12T17:48:50.442Z,1.92
2022-09-12T17:51:17.301Z,2.25
2022-09-12T17:53:44.189Z,2.22
2022-09-12T17:56:11.694Z,2.40
2022-09-12T17:58:38.859Z,2.13
2022-09-12T18:01:31.950Z,2.40
2022-09-12T18:04:00.658Z,2.55
2022-09-12T18:06:32.035Z,2.40
2022-09-12T18:09:07.065Z,2.55
2022-09-12T18:11:33.705Z,2.63
2022-09-12T18:14:01.314Z,3.10
2022-09-12T18:16:31.594Z,2.85
2022-09-12T18:19:01.695Z,2.10
2022-09-12T18:21:29.410Z,3.20
2022-09-12T18:23:59.311Z,2.33
2022-09-12T18:26:27.810Z,2.63
2022-09-12T18:28:55.182Z,3.03
2022-09-12T18:31:25.477Z,3.28
2022-09-12T18:33:52.687Z,3.10
2022-09-12T18:36:20.301Z,2.63
2022-09-12T18:38:48.115Z,3.40
2022-09-12T18:41:20.775Z,2.67
2022-09-12T18:43:48.314Z,2.90
2022-09-12T18:46:19.562Z,2.72
2022-09-12T18:48:47.083Z,2.90
2022-09-12T18:51:18.202Z,3.20
2022-09-12T18:53:56.436Z,3.03
2022-09-12T18:56:26.428Z,3.60
2022-09-12T18:58:55.950Z,2.90
2022-09-12T19:01:25.355Z,3.08
2022-09-12T19:03:52.415Z,3.08
2022-09-12T19:06:27.360Z,2.85
2022-09-12T19:08:55.163Z,3.33
2022-09-12T19:11:23.247Z,3.38
2022-09-12T19:16:20.878Z,3.42
2022-09-12T19:18:52.241Z,3.10
2022-09-12T19:21:24.753Z,3.20
2022-09-12T19:23:52.713Z,2.70
2022-09-12T19:26:20.699Z,3.42
2022-09-12T19:28:47.662Z,2.80
2022-09-12T19:31:18.860Z,2.97
2022-09-12T19:33:46.255Z,3.03
2022-09-12T19:36:40.870Z,3.15
2022-09-12T19:39:02.336Z,3.35
2022-09-12T19:41:29.018Z,3.05
2022-09-12T19:43:56.471Z,3.38
2022-09-12T19:46:24.896Z,3.70
2022-09-12T19:48:55.549Z,3.35
2022-09-12T19:51:24.317Z,3.42
2022-09-12T19:53:51.750Z,3.30
2022-09-12T19:56:18.516Z,3.15
2022-09-12T19:58:47.741Z,3.30
2022-09-12T20:01:25.185Z,2.97
2022-09-12T20:03:55.168Z,3.35
2022-09-12T20:06:22.101Z,3.20
2022-09-12T20:08:48.802Z,3.22
2022-09-12T20:11:18.113Z,2.88
2022-09-12T20:13:45.798Z,4.40
2022-09-12T20:16:22.659Z,3.53
2022-09-12T20:18:57.501Z,3.88
2022-09-12T20:21:31.045Z,3.88
2022-09-12T20:24:03.484Z,3.58
2022-09-12T20:26:30.809Z,4.05
2022-09-12T20:28:57.409Z,3.40
2022-09-12T20:31:24.095Z,3.42
2022-09-12T20:33:52.057Z,3.70
2022-09-12T20:36:20.625Z,3.40
2022-09-12T20:38:52.322Z,3.35
2022-09-12T20:41:20.494Z,3.45
2022-09-12T20:46:21.649Z,4.07
2022-09-12T20:48:49.026Z,3.50
2022-09-12T20:51:17.845Z,3.28
2022-09-12T20:53:44.455Z,3.78
2022-09-12T20:56:11.149Z,3.67
2022-09-12T20:58:43.054Z,3.70
2022-09-12T21:01:12.386Z,4.60
2022-09-12T21:03:40.383Z,4.38
2022-09-12T21:06:08.505Z,4.25
2022-09-12T21:08:36.238Z,3.92
2022-09-12T21:11:03.517Z,4.47
2022-09-12T21:13:30.365Z,3.87
2022-09-12T21:16:10.651Z,3.80
2022-09-12T21:18:37.328Z,4.32
2022-09-12T21:21:05.776Z,3.88
2022-09-12T21:23:34.415Z,4.68
2022-09-12T21:26:01.638Z,4.28
2022-09-12T21:28:28.326Z,3.40
2022-09-12T21:30:56.117Z,3.97
2022-09-12T21:33:22.931Z,4.38
2022-09-12T21:35:50.159Z,3.95
2022-09-12T21:38:18.694Z,3.97
2022-09-12T21:40:46.151Z,4.10
2022-09-12T21:43:13.377Z,4.22
2022-09-12T21:45:40.543Z,4.27
2022-09-12T21:48:07.149Z,4.07
2022-09-12T21:50:33.756Z,3.75
2022-09-12T21:53:00.430Z,4.45
2022-09-12T21:55:27.431Z,4.55
2022-09-12T21:57:55.293Z,4.38
2022-09-12T22:00:22.669Z,3.97
2022-09-12T22:02:49.556Z,4.20
2022-09-12T22:05:17.269Z,5.03
2022-09-12T22:07:44.084Z,4.75
2022-09-12T22:10:10.772Z,4.65
2022-09-12T22:12:37.431Z,5.03
2022-09-12T22:15:23.009Z,4.60
2022-09-12T22:17:51.062Z,6.25
2022-09-12T22:20:17.851Z,5.88
2022-09-12T22:23:03.158Z,5.22
2022-09-12T22:25:30.896Z,5.57
2022-09-12T22:27:58.291Z,5.80
2022-09-12T22:30:27.381Z,5.70
2022-09-12T22:32:54.188Z,6.82
2022-09-12T22:35:21.066Z,6.80
2022-09-12T22:37:47.929Z,5.97
2022-09-12T22:40:15.760Z,6.50
2022-09-12T22:42:42.472Z,8.23
2022-09-12T22:45:09.730Z,6.72
2022-09-12T22:47:36.397Z,6.63
2022-09-12T22:50:03.224Z,6.43
2022-09-12T22:52:29.800Z,6.95
2022-09-12T22:54:57.011Z,6.20
2022-09-12T22:57:23.596Z,6.90
2022-09-12T22:59:50.268Z,6.68
2022-09-12T23:02:16.859Z,6.68
2022-09-12T23:04:44.206Z,7.20
2022-09-12T23:07:11.082Z,6.13
2022-09-12T23:09:37.662Z,6.70
2022-09-12T23:12:04.500Z,6.40
2022-09-12T23:14:31.147Z,7.05
2022-09-12T23:16:57.773Z,6.55
2022-09-12T23:19:24.450Z,6.35
2022-09-12T23:21:51.179Z,6.93
2022-09-12T23:24:17.975Z,6.90
2022-09-12T23:26:44.570Z,6.97
2022-09-12T23:29:11.498Z,6.68
2022-09-12T23:31:38.239Z,6.10
2022-09-12T23:34:09.310Z,7.20
2022-09-12T23:36:36.214Z,7.72
2022-09-12T23:39:03.387Z,6.78
2022-09-12T23:41:29.994Z,7.40
2022-09-12T23:43:56.964Z,7.55
2022-09-12T23:46:24.077Z,7.07
2022-09-12T23:48:53.189Z,7.50
2022-09-12T23:51:21.672Z,7.30
2022-09-12T23:53:48.331Z,6.88
2022-09-12T23:56:14.928Z,7.00
2022-09-12T23:58:41.805Z,7.18
